Sign-in with your pilot id or email, or register

Flight ORB120

  • Submitted By: Thomas Schedl
  • Departure Airport: Bologna (LIPE)
  • Arrival Airport: Reggio Calabria (LICR)
  • Aircraft: B737-800 (EI-RAB)
  • Flight Time: 1.18
  • Date Submitted: 17/10/2018
  • Route: PELE6X PELEG GAVRA AGNIS Q58 PIGER PIGE1B
  • Status: Accepted
Flight Details
Gross Revenue:
(138 load / € 295.00 per unit
€ 40, 710.00
Fuel Cost:
(7989 fuel used @ 0.9253 / unit)
€ 7, 392.22

Additional Log Information:

View Log

[2018/10/17 09:25:00]
Flight IATA:ORB120
Pilot Number:ORB0001
Company ICAO:ORB
Aircraft Type:B737-800
PAX:138
Aircraft Registration:EI-RAB
Departing Airport: LIPE
Destination Airport: LICR
Alternate Airport:LMML
Online: No
Route:PELE6X PELEG DCT GAVRA DCT AGNIS Q58 PIGER PIGE1B
Flight Level:35000
09:25 Zero fuel Weight: 121802 Lbs, Fuel Weight: 18432 Lbs
09:25 VATSIM:LIPE 170850Z 24003KT 200V280 3000 BR SCT012 BKN022 BKN030 17/15 Q1020
09:25 VATSIM:LICR 170850Z 19010KT 9999 FEW050 25/18 Q1016
09:28 Parking Brakes off
09:28 Com1 Freq=128.30
09:28 VR= 159 Knots
09:28 V2= 163 Knots
09:28 Take-off
09:28 Take off Weight: 139969 Lbs
09:28 Wind: 227? @ 003 Knots Heading: 117?
09:28 POS N44? 32? 07?? E011? 17? 16??
09:28 N11 107 N12 107
09:28 Flaps:5 at 165 Knots
09:29 Gear Up: 167 Knots
09:29 Flaps:4 at 201 Knots
09:29 Flaps:3 at 223 Knots
09:29 Flaps:2 at 248 Knots
09:29 Flaps:1 at 248 Knots
09:29 Flaps:0 at 247 Knots
09:43 Wind:246?@014 Knots Heading: 170? Ground Speed: 443 Knots Altitude 27677 ft
09:49 TOC
09:49 Fuel Weight: 14488 Lb
09:58 Wind:157?@011 Knots Heading: 151? Ground Speed: 441 Knots Altitude 35000 ft
10:13 Wind:104?@017 Knots Heading: 150? Ground Speed: 442 Knots Altitude 34996 ft
10:13 TOD
10:13 Fuel Weight: 12358 Lb
10:28 Wind:164?@007 Knots Heading: 157? Ground Speed: 361 Knots Altitude 19347 ft
10:36 Flaps:1 at 263 Knots
10:36 Flaps:2 at 262 Knots
10:40 Gear Down: 164 Knots
10:40 Flaps:3 at 163 Knots
10:40 Flaps:4 at 160 Knots
10:40 Flaps:5 at 158 Knots
10:40 Flaps:6 at 156 Knots
10:40 Flaps:7 at 152 Knots
10:40 Flaps:8 at 145 Knots
10:43 Wind:189?@010 Knots Heading: 157? Ground Speed: 139 Knots Altitude 1020 ft
10:44 TouchDown:Rate -356 ft/min Speed: 121 Knots
10:44 VATSIM:LICR 170950Z 19011KTCAVOK 26/18 Q1015
10:44 Land
10:44 Wind:193?@010 Knots
10:44 Heading: 158?
10:44 Flight Duration: 01:16
10:44 Landing Weight: 132362 Lbs
10:44 POS N38? 04? 11?? E015? 39? 08??
10:46 Parking brakes on
10:46 Block to Block Duration: 01:18
10:46 Final Fuel: 10443 Lbls
10:46 Spent Fuel: 7989 Lbls
10:46 Flight Length: 475 NM
10:46 TOD Land Length: 169 NM

Route Map